sensor_id;sensor_type;location;lat;lon;timestamp;temperature;humidity
34147;DHT22;20423;49.448;9.056;2022-12-07T00:00:50;-0.50;99.90
34147;DHT22;20423;49.448;9.056;2022-12-07T00:03:16;-0.60;99.90
34147;DHT22;20423;49.448;9.056;2022-12-07T00:05:41;-0.70;99.90
34147;DHT22;20423;49.448;9.056;2022-12-07T00:08:07;-0.70;99.90
34147;DHT22;20423;49.448;9.056;2022-12-07T00:10:33;-0.70;99.90
34147;DHT22;20423;49.448;9.056;2022-12-07T00:12:59;-0.70;99.90
34147;DHT22;20423;49.448;9.056;2022-12-07T00:15:25;-0.70;99.90
34147;DHT22;20423;49.448;9.056;2022-12-07T00:17:51;-0.60;99.90
34147;DHT22;20423;49.448;9.056;2022-12-07T00:20:16;-0.60;99.90
34147;DHT22;20423;49.448;9.056;2022-12-07T00:22:42;-0.70;99.90
34147;DHT22;20423;49.448;9.056;2022-12-07T00:25:08;-0.80;99.90
34147;DHT22;20423;49.448;9.056;2022-12-07T00:27:33;-0.90;99.90
34147;DHT22;20423;49.448;9.056;2022-12-07T00:29:59;-1.00;99.90
34147;DHT22;20423;49.448;9.056;2022-12-07T00:32:25;-1.00;99.90
34147;DHT22;20423;49.448;9.056;2022-12-07T00:34:50;-1.00;99.90
34147;DHT22;20423;49.448;9.056;2022-12-07T00:37:16;-1.10;99.90
34147;DHT22;20423;49.448;9.056;2022-12-07T00:39:42;-1.00;99.90
34147;DHT22;20423;49.448;9.056;2022-12-07T00:42:07;-0.90;99.90
34147;DHT22;20423;49.448;9.056;2022-12-07T00:44:33;-0.70;99.90
34147;DHT22;20423;49.448;9.056;2022-12-07T00:46:58;-0.60;99.90
34147;DHT22;20423;49.448;9.056;2022-12-07T00:49:24;-0.50;99.90
34147;DHT22;20423;49.448;9.056;2022-12-07T00:51:50;-0.50;99.90
34147;DHT22;20423;49.448;9.056;2022-12-07T00:54:15;-0.50;99.90
34147;DHT22;20423;49.448;9.056;2022-12-07T00:56:41;-0.40;99.90
34147;DHT22;20423;49.448;9.056;2022-12-07T00:59:10;-0.40;99.90
34147;DHT22;20423;49.448;9.056;2022-12-07T01:01:36;-0.30;99.90
34147;DHT22;20423;49.448;9.056;2022-12-07T01:04:03;-0.20;99.90
34147;DHT22;20423;49.448;9.056;2022-12-07T01:06:29;-0.20;99.90
34147;DHT22;20423;49.448;9.056;2022-12-07T01:08:55;-0.10;99.90
34147;DHT22;20423;49.448;9.056;2022-12-07T01:11:24;-0.10;99.90
34147;DHT22;20423;49.448;9.056;2022-12-07T01:13:51;-0.10;99.90
34147;DHT22;20423;49.448;9.056;2022-12-07T01:16:17;0.00;99.90
34147;DHT22;20423;49.448;9.056;2022-12-07T01:18:47;0.00;99.90
34147;DHT22;20423;49.448;9.056;2022-12-07T01:21:25;0.00;99.90
34147;DHT22;20423;49.448;9.056;2022-12-07T01:23:51;0.00;99.90
34147;DHT22;20423;49.448;9.056;2022-12-07T01:26:22;0.00;99.90
34147;DHT22;20423;49.448;9.056;2022-12-07T01:28:48;0.00;99.90
34147;DHT22;20423;49.448;9.056;2022-12-07T01:31:17;0.00;99.90
34147;DHT22;20423;49.448;9.056;2022-12-07T01:33:45;0.00;99.90
34147;DHT22;20423;49.448;9.056;2022-12-07T01:36:17;0.10;99.90
34147;DHT22;20423;49.448;9.056;2022-12-07T01:38:43;0.10;99.90
34147;DHT22;20423;49.448;9.056;2022-12-07T01:41:10;0.10;99.90
34147;DHT22;20423;49.448;9.056;2022-12-07T01:43:36;0.10;99.90
34147;DHT22;20423;49.448;9.056;2022-12-07T01:46:03;0.10;99.90
34147;DHT22;20423;49.448;9.056;2022-12-07T01:48:38;0.20;99.90
34147;DHT22;20423;49.448;9.056;2022-12-07T01:51:12;0.20;99.90
34147;DHT22;20423;49.448;9.056;2022-12-07T01:53:42;0.20;99.90
34147;DHT22;20423;49.448;9.056;2022-12-07T01:56:12;0.20;99.90
34147;DHT22;20423;49.448;9.056;2022-12-07T01:58:41;0.30;99.90
34147;DHT22;20423;49.448;9.056;2022-12-07T02:01:06;0.30;99.90
34147;DHT22;20423;49.448;9.056;2022-12-07T02:03:41;0.30;99.90
34147;DHT22;20423;49.448;9.056;2022-12-07T02:06:08;0.30;99.90
34147;DHT22;20423;49.448;9.056;2022-12-07T02:08:35;0.40;99.90
34147;DHT22;20423;49.448;9.056;2022-12-07T02:11:02;0.30;99.90
34147;DHT22;20423;49.448;9.056;2022-12-07T02:13:31;0.40;99.90
34147;DHT22;20423;49.448;9.056;2022-12-07T02:16:27;0.30;99.90
34147;DHT22;20423;49.448;9.056;2022-12-07T02:30:06;0.40;99.90
34147;DHT22;20423;49.448;9.056;2022-12-07T02:35:24;0.40;99.90
34147;DHT22;20423;49.448;9.056;2022-12-07T02:38:04;0.40;99.90
34147;DHT22;20423;49.448;9.056;2022-12-07T02:43:26;0.40;99.90
34147;DHT22;20423;49.448;9.056;2022-12-07T02:45:56;0.40;99.90
34147;DHT22;20423;49.448;9.056;2022-12-07T02:48:24;0.30;99.90
34147;DHT22;20423;49.448;9.056;2022-12-07T02:50:53;0.30;99.90
34147;DHT22;20423;49.448;9.056;2022-12-07T02:53:30;0.40;99.90
34147;DHT22;20423;49.448;9.056;2022-12-07T02:55:57;0.30;99.90
34147;DHT22;20423;49.448;9.056;2022-12-07T02:58:47;0.30;99.90
34147;DHT22;20423;49.448;9.056;2022-12-07T03:04:14;0.40;99.90
34147;DHT22;20423;49.448;9.056;2022-12-07T03:06:53;0.40;99.90
34147;DHT22;20423;49.448;9.056;2022-12-07T03:09:30;0.30;99.90
34147;DHT22;20423;49.448;9.056;2022-12-07T03:12:29;0.40;99.90
34147;DHT22;20423;49.448;9.056;2022-12-07T03:15:20;0.40;99.90
34147;DHT22;20423;49.448;9.056;2022-12-07T03:17:47;0.40;99.90
34147;DHT22;20423;49.448;9.056;2022-12-07T03:20:18;0.50;99.90
34147;DHT22;20423;49.448;9.056;2022-12-07T03:22:47;0.50;99.90
34147;DHT22;20423;49.448;9.056;2022-12-07T03:25:15;0.50;99.90
34147;DHT22;20423;49.448;9.056;2022-12-07T03:28:02;0.60;99.90
34147;DHT22;20423;49.448;9.056;2022-12-07T03:30:51;0.60;99.90
34147;DHT22;20423;49.448;9.056;2022-12-07T03:33:25;0.60;99.90
34147;DHT22;20423;49.448;9.056;2022-12-07T03:42:18;0.60;99.90
34147;DHT22;20423;49.448;9.056;2022-12-07T03:44:44;0.50;99.90
34147;DHT22;20423;49.448;9.056;2022-12-07T03:47:12;0.50;99.90
34147;DHT22;20423;49.448;9.056;2022-12-07T03:49:46;0.60;99.90
34147;DHT22;20423;49.448;9.056;2022-12-07T03:52:29;0.60;99.90
34147;DHT22;20423;49.448;9.056;2022-12-07T03:55:06;0.60;99.90
34147;DHT22;20423;49.448;9.056;2022-12-07T03:57:34;0.60;99.90
34147;DHT22;20423;49.448;9.056;2022-12-07T04:00:01;0.60;99.90
34147;DHT22;20423;49.448;9.056;2022-12-07T04:02:37;0.60;99.90
34147;DHT22;20423;49.448;9.056;2022-12-07T04:05:04;0.60;99.90
34147;DHT22;20423;49.448;9.056;2022-12-07T04:07:31;0.60;99.90
34147;DHT22;20423;49.448;9.056;2022-12-07T04:09:56;0.60;99.90
34147;DHT22;20423;49.448;9.056;2022-12-07T04:12:23;0.50;99.90
34147;DHT22;20423;49.448;9.056;2022-12-07T04:14:49;0.50;99.90
34147;DHT22;20423;49.448;9.056;2022-12-07T04:17:14;0.60;99.90
34147;DHT22;20423;49.448;9.056;2022-12-07T04:19:40;0.60;99.90
34147;DHT22;20423;49.448;9.056;2022-12-07T04:22:06;0.60;99.90
34147;DHT22;20423;49.448;9.056;2022-12-07T04:24:33;0.60;99.90
34147;DHT22;20423;49.448;9.056;2022-12-07T04:26:59;0.60;99.90
34147;DHT22;20423;49.448;9.056;2022-12-07T04:29:25;0.60;99.90
34147;DHT22;20423;49.448;9.056;2022-12-07T04:31:51;0.60;99.90
34147;DHT22;20423;49.448;9.056;2022-12-07T04:34:17;0.60;99.90
34147;DHT22;20423;49.448;9.056;2022-12-07T04:36:44;0.70;99.90
34147;DHT22;20423;49.448;9.056;2022-12-07T04:39:27;0.70;99.90
34147;DHT22;20423;49.448;9.056;2022-12-07T04:41:53;0.70;99.90
34147;DHT22;20423;49.448;9.056;2022-12-07T04:44:19;0.70;99.90
34147;DHT22;20423;49.448;9.056;2022-12-07T04:46:46;0.70;99.90
34147;DHT22;20423;49.448;9.056;2022-12-07T04:49:12;0.70;99.90
34147;DHT22;20423;49.448;9.056;2022-12-07T04:51:38;0.70;99.90
34147;DHT22;20423;49.448;9.056;2022-12-07T04:54:05;0.70;99.90
34147;DHT22;20423;49.448;9.056;2022-12-07T04:56:30;0.70;99.90
34147;DHT22;20423;49.448;9.056;2022-12-07T04:58:56;0.70;99.90
34147;DHT22;20423;49.448;9.056;2022-12-07T05:01:22;0.60;99.90
34147;DHT22;20423;49.448;9.056;2022-12-07T05:03:49;0.70;99.90
34147;DHT22;20423;49.448;9.056;2022-12-07T05:06:14;0.60;99.90
34147;DHT22;20423;49.448;9.056;2022-12-07T05:08:40;0.60;99.90
34147;DHT22;20423;49.448;9.056;2022-12-07T05:11:08;0.60;99.90
34147;DHT22;20423;49.448;9.056;2022-12-07T05:13:39;0.60;99.90
34147;DHT22;20423;49.448;9.056;2022-12-07T05:19:15;0.70;99.90
34147;DHT22;20423;49.448;9.056;2022-12-07T05:21:41;0.70;99.90
34147;DHT22;20423;49.448;9.056;2022-12-07T05:24:09;0.70;99.90
34147;DHT22;20423;49.448;9.056;2022-12-07T05:26:35;0.70;99.90
34147;DHT22;20423;49.448;9.056;2022-12-07T05:29:01;0.60;99.90
34147;DHT22;20423;49.448;9.056;2022-12-07T05:31:27;0.60;99.90
34147;DHT22;20423;49.448;9.056;2022-12-07T05:33:53;0.60;99.90
34147;DHT22;20423;49.448;9.056;2022-12-07T05:36:19;0.60;99.90
34147;DHT22;20423;49.448;9.056;2022-12-07T05:38:45;0.50;99.90
34147;DHT22;20423;49.448;9.056;2022-12-07T05:41:14;0.50;99.90
34147;DHT22;20423;49.448;9.056;2022-12-07T05:43:59;0.50;99.90
34147;DHT22;20423;49.448;9.056;2022-12-07T05:46:24;0.60;99.90
34147;DHT22;20423;49.448;9.056;2022-12-07T05:48:50;0.50;99.90
34147;DHT22;20423;49.448;9.056;2022-12-07T05:51:16;0.50;99.90
34147;DHT22;20423;49.448;9.056;2022-12-07T05:53:42;0.40;99.90
34147;DHT22;20423;49.448;9.056;2022-12-07T05:56:08;0.40;99.90
34147;DHT22;20423;49.448;9.056;2022-12-07T05:58:33;0.40;99.90
34147;DHT22;20423;49.448;9.056;2022-12-07T06:01:17;0.40;99.90
34147;DHT22;20423;49.448;9.056;2022-12-07T06:03:43;0.40;99.90
34147;DHT22;20423;49.448;9.056;2022-12-07T06:06:10;0.40;99.90
34147;DHT22;20423;49.448;9.056;2022-12-07T06:08:35;0.30;99.90
34147;DHT22;20423;49.448;9.056;2022-12-07T06:11:01;0.30;99.90
34147;DHT22;20423;49.448;9.056;2022-12-07T06:13:45;0.30;99.90
34147;DHT22;20423;49.448;9.056;2022-12-07T06:16:11;0.30;99.90
34147;DHT22;20423;49.448;9.056;2022-12-07T06:18:36;0.40;99.90
34147;DHT22;20423;49.448;9.056;2022-12-07T06:21:02;0.40;99.90
34147;DHT22;20423;49.448;9.056;2022-12-07T06:23:28;0.40;99.90
34147;DHT22;20423;49.448;9.056;2022-12-07T06:25:53;0.40;99.90
34147;DHT22;20423;49.448;9.056;2022-12-07T06:28:19;0.40;99.90
34147;DHT22;20423;49.448;9.056;2022-12-07T06:30:45;0.40;99.90
34147;DHT22;20423;49.448;9.056;2022-12-07T06:33:10;0.40;99.90
34147;DHT22;20423;49.448;9.056;2022-12-07T06:35:36;0.40;99.90
34147;DHT22;20423;49.448;9.056;2022-12-07T06:38:01;0.40;99.90
34147;DHT22;20423;49.448;9.056;2022-12-07T06:40:27;0.40;99.90
34147;DHT22;20423;49.448;9.056;2022-12-07T06:42:53;0.50;99.90
34147;DHT22;20423;49.448;9.056;2022-12-07T06:45:19;0.50;99.90
34147;DHT22;20423;49.448;9.056;2022-12-07T06:47:44;0.50;99.90
34147;DHT22;20423;49.448;9.056;2022-12-07T06:50:10;0.50;99.90
34147;DHT22;20423;49.448;9.056;2022-12-07T06:52:36;0.50;99.90
34147;DHT22;20423;49.448;9.056;2022-12-07T06:55:02;0.50;99.90
34147;DHT22;20423;49.448;9.056;2022-12-07T06:57:27;0.50;99.90
34147;DHT22;20423;49.448;9.056;2022-12-07T06:59:53;0.50;99.90
34147;DHT22;20423;49.448;9.056;2022-12-07T07:02:19;0.50;99.90
34147;DHT22;20423;49.448;9.056;2022-12-07T07:04:44;0.60;99.90
34147;DHT22;20423;49.448;9.056;2022-12-07T07:07:10;0.50;99.90
34147;DHT22;20423;49.448;9.056;2022-12-07T07:09:36;0.50;99.90
34147;DHT22;20423;49.448;9.056;2022-12-07T07:12:02;0.60;99.90
34147;DHT22;20423;49.448;9.056;2022-12-07T07:14:27;0.60;99.90
34147;DHT22;20423;49.448;9.056;2022-12-07T07:16:53;0.60;99.90
34147;DHT22;20423;49.448;9.056;2022-12-07T07:19:19;0.60;99.90
34147;DHT22;20423;49.448;9.056;2022-12-07T07:21:44;0.50;99.90
34147;DHT22;20423;49.448;9.056;2022-12-07T07:24:33;0.50;99.90
34147;DHT22;20423;49.448;9.056;2022-12-07T07:27:04;0.50;99.90
34147;DHT22;20423;49.448;9.056;2022-12-07T07:29:30;0.60;99.90
34147;DHT22;20423;49.448;9.056;2022-12-07T07:31:56;0.60;99.90
34147;DHT22;20423;49.448;9.056;2022-12-07T07:34:22;0.60;99.90
34147;DHT22;20423;49.448;9.056;2022-12-07T07:36:47;0.60;99.90
34147;DHT22;20423;49.448;9.056;2022-12-07T07:39:13;0.60;99.90
34147;DHT22;20423;49.448;9.056;2022-12-07T07:41:39;0.70;99.90
34147;DHT22;20423;49.448;9.056;2022-12-07T07:44:11;0.70;99.90
34147;DHT22;20423;49.448;9.056;2022-12-07T07:46:37;0.70;99.90
34147;DHT22;20423;49.448;9.056;2022-12-07T07:52:35;0.70;99.90
34147;DHT22;20423;49.448;9.056;2022-12-07T07:55:01;0.60;99.90
34147;DHT22;20423;49.448;9.056;2022-12-07T07:57:27;0.60;99.90
34147;DHT22;20423;49.448;9.056;2022-12-07T07:59:53;0.70;99.90
34147;DHT22;20423;49.448;9.056;2022-12-07T08:02:20;0.70;99.90
34147;DHT22;20423;49.448;9.056;2022-12-07T08:04:46;0.70;99.90
34147;DHT22;20423;49.448;9.056;2022-12-07T08:07:12;0.80;99.90
34147;DHT22;20423;49.448;9.056;2022-12-07T08:09:38;0.80;99.90
34147;DHT22;20423;49.448;9.056;2022-12-07T08:12:05;0.80;99.90
34147;DHT22;20423;49.448;9.056;2022-12-07T08:14:30;0.90;99.90
34147;DHT22;20423;49.448;9.056;2022-12-07T08:16:57;1.00;99.90
34147;DHT22;20423;49.448;9.056;2022-12-07T08:19:23;1.00;99.90
34147;DHT22;20423;49.448;9.056;2022-12-07T08:21:49;1.10;99.90
34147;DHT22;20423;49.448;9.056;2022-12-07T08:24:15;1.10;99.90
34147;DHT22;20423;49.448;9.056;2022-12-07T08:26:41;1.10;99.90
34147;DHT22;20423;49.448;9.056;2022-12-07T08:29:07;1.10;99.90
34147;DHT22;20423;49.448;9.056;2022-12-07T08:31:33;1.20;99.90
34147;DHT22;20423;49.448;9.056;2022-12-07T08:33:59;1.20;99.90
34147;DHT22;20423;49.448;9.056;2022-12-07T08:36:25;1.20;99.90
34147;DHT22;20423;49.448;9.056;2022-12-07T08:38:51;1.20;99.90
34147;DHT22;20423;49.448;9.056;2022-12-07T08:41:17;1.20;99.90
34147;DHT22;20423;49.448;9.056;2022-12-07T08:43:43;1.20;99.90
34147;DHT22;20423;49.448;9.056;2022-12-07T08:46:21;1.20;99.90
34147;DHT22;20423;49.448;9.056;2022-12-07T08:48:56;1.10;99.90
34147;DHT22;20423;49.448;9.056;2022-12-07T08:51:24;1.10;99.90
34147;DHT22;20423;49.448;9.056;2022-12-07T08:53:51;1.30;99.90
34147;DHT22;20423;49.448;9.056;2022-12-07T08:56:17;1.20;99.90
34147;DHT22;20423;49.448;9.056;2022-12-07T08:58:44;1.20;99.90
34147;DHT22;20423;49.448;9.056;2022-12-07T09:01:10;1.20;99.90
34147;DHT22;20423;49.448;9.056;2022-12-07T09:03:35;1.20;99.90
34147;DHT22;20423;49.448;9.056;2022-12-07T09:06:02;1.30;99.90
34147;DHT22;20423;49.448;9.056;2022-12-07T09:08:33;1.30;99.90
34147;DHT22;20423;49.448;9.056;2022-12-07T09:10:59;1.30;99.90
34147;DHT22;20423;49.448;9.056;2022-12-07T09:13:25;1.30;99.90
34147;DHT22;20423;49.448;9.056;2022-12-07T09:15:50;1.30;99.90
34147;DHT22;20423;49.448;9.056;2022-12-07T09:18:16;1.30;99.90
34147;DHT22;20423;49.448;9.056;2022-12-07T09:20:42;1.30;99.90
34147;DHT22;20423;49.448;9.056;2022-12-07T09:23:07;1.30;99.90
34147;DHT22;20423;49.448;9.056;2022-12-07T09:25:34;1.30;99.90
34147;DHT22;20423;49.448;9.056;2022-12-07T09:28:00;1.30;99.90
34147;DHT22;20423;49.448;9.056;2022-12-07T09:30:26;1.30;99.90
34147;DHT22;20423;49.448;9.056;2022-12-07T09:32:56;1.40;99.90
34147;DHT22;20423;49.448;9.056;2022-12-07T09:35:23;1.40;99.90
34147;DHT22;20423;49.448;9.056;2022-12-07T09:37:49;1.40;99.90
34147;DHT22;20423;49.448;9.056;2022-12-07T09:40:16;1.30;99.90
34147;DHT22;20423;49.448;9.056;2022-12-07T09:42:47;1.20;99.90
34147;DHT22;20423;49.448;9.056;2022-12-07T09:45:25;1.20;99.90
34147;DHT22;20423;49.448;9.056;2022-12-07T09:47:52;1.30;99.90
34147;DHT22;20423;49.448;9.056;2022-12-07T09:50:52;1.30;99.90
34147;DHT22;20423;49.448;9.056;2022-12-07T09:53:28;1.30;99.90
34147;DHT22;20423;49.448;9.056;2022-12-07T09:55:55;1.30;99.90
34147;DHT22;20423;49.448;9.056;2022-12-07T09:58:24;1.40;99.90
34147;DHT22;20423;49.448;9.056;2022-12-07T10:01:15;1.40;99.90
34147;DHT22;20423;49.448;9.056;2022-12-07T10:03:51;1.40;99.90
34147;DHT22;20423;49.448;9.056;2022-12-07T10:06:17;1.40;99.90
34147;DHT22;20423;49.448;9.056;2022-12-07T10:08:43;1.40;99.90
34147;DHT22;20423;49.448;9.056;2022-12-07T10:11:10;1.30;99.90
34147;DHT22;20423;49.448;9.056;2022-12-07T10:13:40;1.40;99.90
34147;DHT22;20423;49.448;9.056;2022-12-07T10:16:10;1.40;99.90
34147;DHT22;20423;49.448;9.056;2022-12-07T10:18:53;1.50;99.90
34147;DHT22;20423;49.448;9.056;2022-12-07T10:21:22;1.50;99.90
34147;DHT22;20423;49.448;9.056;2022-12-07T10:24:08;1.50;99.90
34147;DHT22;20423;49.448;9.056;2022-12-07T10:34:50;1.60;99.90
34147;DHT22;20423;49.448;9.056;2022-12-07T10:37:18;1.70;99.90
34147;DHT22;20423;49.448;9.056;2022-12-07T10:40:23;1.60;99.90
34147;DHT22;20423;49.448;9.056;2022-12-07T10:43:19;1.60;99.90
34147;DHT22;20423;49.448;9.056;2022-12-07T10:48:22;1.70;99.90
34147;DHT22;20423;49.448;9.056;2022-12-07T10:54:21;1.70;99.90
34147;DHT22;20423;49.448;9.056;2022-12-07T11:00:18;1.70;99.90
34147;DHT22;20423;49.448;9.056;2022-12-07T11:08:21;1.70;99.90
34147;DHT22;20423;49.448;9.056;2022-12-07T11:10:55;1.70;99.90
34147;DHT22;20423;49.448;9.056;2022-12-07T11:16:26;1.80;99.90
34147;DHT22;20423;49.448;9.056;2022-12-07T11:22:04;2.00;99.90
34147;DHT22;20423;49.448;9.056;2022-12-07T11:29:55;2.10;99.90
34147;DHT22;20423;49.448;9.056;2022-12-07T11:35:15;2.40;99.90
34147;DHT22;20423;49.448;9.056;2022-12-07T11:37:46;2.60;99.90
34147;DHT22;20423;49.448;9.056;2022-12-07T11:40:26;2.60;99.90
34147;DHT22;20423;49.448;9.056;2022-12-07T11:43:46;2.50;99.90
34147;DHT22;20423;49.448;9.056;2022-12-07T11:45:50;2.60;99.90
34147;DHT22;20423;49.448;9.056;2022-12-07T11:48:22;2.50;99.90
34147;DHT22;20423;49.448;9.056;2022-12-07T11:50:51;2.50;99.90
34147;DHT22;20423;49.448;9.056;2022-12-07T11:53:25;2.40;99.90
34147;DHT22;20423;49.448;9.056;2022-12-07T11:59:06;2.50;99.90
34147;DHT22;20423;49.448;9.056;2022-12-07T12:06:38;2.40;99.90
34147;DHT22;20423;49.448;9.056;2022-12-07T12:09:17;2.20;99.90
34147;DHT22;20423;49.448;9.056;2022-12-07T12:14:46;2.00;99.90
34147;DHT22;20423;49.448;9.056;2022-12-07T12:25:27;2.10;99.90
34147;DHT22;20423;49.448;9.056;2022-12-07T12:27:57;2.00;99.90
34147;DHT22;20423;49.448;9.056;2022-12-07T12:30:37;2.00;99.90
34147;DHT22;20423;49.448;9.056;2022-12-07T12:33:27;2.10;99.90
34147;DHT22;20423;49.448;9.056;2022-12-07T12:50:43;2.70;99.90
34147;DHT22;20423;49.448;9.056;2022-12-07T12:53:21;2.70;99.90
34147;DHT22;20423;49.448;9.056;2022-12-07T12:58:41;3.00;99.90
34147;DHT22;20423;49.448;9.056;2022-12-07T13:03:53;3.20;99.90
34147;DHT22;20423;49.448;9.056;2022-12-07T13:06:34;3.10;99.90
34147;DHT22;20423;49.448;9.056;2022-12-07T13:09:00;2.90;99.90
34147;DHT22;20423;49.448;9.056;2022-12-07T13:11:44;2.90;99.90
34147;DHT22;20423;49.448;9.056;2022-12-07T13:20:03;2.80;99.90
34147;DHT22;20423;49.448;9.056;2022-12-07T13:25:29;2.80;99.90
34147;DHT22;20423;49.448;9.056;2022-12-07T13:28:35;2.70;99.90
34147;DHT22;20423;49.448;9.056;2022-12-07T13:33:23;2.60;99.90
34147;DHT22;20423;49.448;9.056;2022-12-07T13:35:53;2.60;99.90
34147;DHT22;20423;49.448;9.056;2022-12-07T13:38:25;2.60;99.90
34147;DHT22;20423;49.448;9.056;2022-12-07T13:41:17;2.50;99.90
34147;DHT22;20423;49.448;9.056;2022-12-07T13:46:15;2.50;99.90
34147;DHT22;20423;49.448;9.056;2022-12-07T13:48:47;2.40;99.90
34147;DHT22;20423;49.448;9.056;2022-12-07T13:51:25;2.40;99.90
34147;DHT22;20423;49.448;9.056;2022-12-07T13:53:59;2.50;99.90
34147;DHT22;20423;49.448;9.056;2022-12-07T13:56:31;2.50;99.90
34147;DHT22;20423;49.448;9.056;2022-12-07T13:58:57;2.40;99.90
34147;DHT22;20423;49.448;9.056;2022-12-07T14:01:24;2.30;99.90
34147;DHT22;20423;49.448;9.056;2022-12-07T14:03:50;2.30;99.90
34147;DHT22;20423;49.448;9.056;2022-12-07T14:06:26;2.30;99.90
34147;DHT22;20423;49.448;9.056;2022-12-07T14:09:21;2.20;99.90
34147;DHT22;20423;49.448;9.056;2022-12-07T14:11:49;2.10;99.90
34147;DHT22;20423;49.448;9.056;2022-12-07T14:14:21;2.10;99.90
34147;DHT22;20423;49.448;9.056;2022-12-07T14:17:18;2.00;99.90
34147;DHT22;20423;49.448;9.056;2022-12-07T14:19:58;2.00;99.90
34147;DHT22;20423;49.448;9.056;2022-12-07T14:22:33;2.00;99.90
34147;DHT22;20423;49.448;9.056;2022-12-07T14:25:21;2.00;99.90
34147;DHT22;20423;49.448;9.056;2022-12-07T14:27:56;2.00;99.90
34147;DHT22;20423;49.448;9.056;2022-12-07T14:30:25;2.00;99.90
34147;DHT22;20423;49.448;9.056;2022-12-07T14:33:11;2.00;99.90
34147;DHT22;20423;49.448;9.056;2022-12-07T14:35:37;2.00;99.90
34147;DHT22;20423;49.448;9.056;2022-12-07T14:38:05;2.00;99.90
34147;DHT22;20423;49.448;9.056;2022-12-07T14:40:32;2.00;99.90
34147;DHT22;20423;49.448;9.056;2022-12-07T14:43:02;2.00;99.90
34147;DHT22;20423;49.448;9.056;2022-12-07T14:45:28;2.00;99.90
34147;DHT22;20423;49.448;9.056;2022-12-07T14:47:54;2.00;99.90
34147;DHT22;20423;49.448;9.056;2022-12-07T14:50:20;2.00;99.90
34147;DHT22;20423;49.448;9.056;2022-12-07T14:52:55;2.00;99.90
34147;DHT22;20423;49.448;9.056;2022-12-07T14:55:26;1.90;99.90
34147;DHT22;20423;49.448;9.056;2022-12-07T14:57:53;1.80;99.90
34147;DHT22;20423;49.448;9.056;2022-12-07T15:00:20;1.80;99.90
34147;DHT22;20423;49.448;9.056;2022-12-07T15:02:47;1.80;99.90
34147;DHT22;20423;49.448;9.056;2022-12-07T15:05:13;1.80;99.90
34147;DHT22;20423;49.448;9.056;2022-12-07T15:07:39;1.80;99.90
34147;DHT22;20423;49.448;9.056;2022-12-07T15:10:06;1.80;99.90
34147;DHT22;20423;49.448;9.056;2022-12-07T15:12:35;1.80;99.90
34147;DHT22;20423;49.448;9.056;2022-12-07T15:15:01;1.70;99.90
34147;DHT22;20423;49.448;9.056;2022-12-07T15:17:27;1.70;99.90
34147;DHT22;20423;49.448;9.056;2022-12-07T15:19:52;1.70;99.90
34147;DHT22;20423;49.448;9.056;2022-12-07T15:22:18;1.70;99.90
34147;DHT22;20423;49.448;9.056;2022-12-07T15:24:44;1.80;99.90
34147;DHT22;20423;49.448;9.056;2022-12-07T15:27:09;1.80;99.90
34147;DHT22;20423;49.448;9.056;2022-12-07T15:29:35;1.80;99.90
34147;DHT22;20423;49.448;9.056;2022-12-07T15:32:00;1.80;99.90
34147;DHT22;20423;49.448;9.056;2022-12-07T15:34:29;1.80;99.90
34147;DHT22;20423;49.448;9.056;2022-12-07T15:36:57;1.80;99.90
34147;DHT22;20423;49.448;9.056;2022-12-07T15:39:23;1.70;99.90
34147;DHT22;20423;49.448;9.056;2022-12-07T15:41:49;1.70;99.90
34147;DHT22;20423;49.448;9.056;2022-12-07T15:44:14;1.70;99.90
34147;DHT22;20423;49.448;9.056;2022-12-07T15:46:59;1.70;99.90
34147;DHT22;20423;49.448;9.056;2022-12-07T15:49:25;1.70;99.90
34147;DHT22;20423;49.448;9.056;2022-12-07T15:51:50;1.70;99.90
34147;DHT22;20423;49.448;9.056;2022-12-07T15:54:20;1.70;99.90
34147;DHT22;20423;49.448;9.056;2022-12-07T15:56:46;1.70;99.90
34147;DHT22;20423;49.448;9.056;2022-12-07T15:59:12;1.70;99.90
34147;DHT22;20423;49.448;9.056;2022-12-07T16:01:38;1.70;99.90
34147;DHT22;20423;49.448;9.056;2022-12-07T16:04:04;1.80;99.90
34147;DHT22;20423;49.448;9.056;2022-12-07T16:06:29;1.80;99.90
34147;DHT22;20423;49.448;9.056;2022-12-07T16:08:55;1.80;99.90
34147;DHT22;20423;49.448;9.056;2022-12-07T16:11:21;1.80;99.90
34147;DHT22;20423;49.448;9.056;2022-12-07T16:13:47;1.80;99.90
34147;DHT22;20423;49.448;9.056;2022-12-07T16:16:14;1.70;99.90
34147;DHT22;20423;49.448;9.056;2022-12-07T16:18:43;1.80;99.90
34147;DHT22;20423;49.448;9.056;2022-12-07T16:21:09;1.70;99.90
34147;DHT22;20423;49.448;9.056;2022-12-07T16:23:35;1.70;99.90
34147;DHT22;20423;49.448;9.056;2022-12-07T16:26:12;1.80;99.90
34147;DHT22;20423;49.448;9.056;2022-12-07T16:28:38;1.70;99.90
34147;DHT22;20423;49.448;9.056;2022-12-07T16:31:06;1.80;99.90
34147;DHT22;20423;49.448;9.056;2022-12-07T16:33:36;1.70;99.90
34147;DHT22;20423;49.448;9.056;2022-12-07T16:36:04;1.70;99.90
34147;DHT22;20423;49.448;9.056;2022-12-07T16:38:30;1.70;99.90
34147;DHT22;20423;49.448;9.056;2022-12-07T16:40:55;1.70;99.90
34147;DHT22;20423;49.448;9.056;2022-12-07T16:43:21;1.70;99.90
34147;DHT22;20423;49.448;9.056;2022-12-07T16:45:47;1.60;99.90
34147;DHT22;20423;49.448;9.056;2022-12-07T16:48:14;1.60;99.90
34147;DHT22;20423;49.448;9.056;2022-12-07T16:50:41;1.60;99.90
34147;DHT22;20423;49.448;9.056;2022-12-07T16:53:08;1.60;99.90
34147;DHT22;20423;49.448;9.056;2022-12-07T16:55:41;1.60;99.90
34147;DHT22;20423;49.448;9.056;2022-12-07T16:58:07;1.60;99.90
34147;DHT22;20423;49.448;9.056;2022-12-07T17:00:34;1.60;99.90
34147;DHT22;20423;49.448;9.056;2022-12-07T17:02:59;1.60;99.90
34147;DHT22;20423;49.448;9.056;2022-12-07T17:05:26;1.60;99.90
34147;DHT22;20423;49.448;9.056;2022-12-07T17:07:53;1.60;99.90
34147;DHT22;20423;49.448;9.056;2022-12-07T17:10:20;1.50;99.90
34147;DHT22;20423;49.448;9.056;2022-12-07T17:12:45;1.60;99.90
34147;DHT22;20423;49.448;9.056;2022-12-07T17:15:11;1.60;99.90
34147;DHT22;20423;49.448;9.056;2022-12-07T17:17:52;1.50;99.90
34147;DHT22;20423;49.448;9.056;2022-12-07T17:20:18;1.40;99.90
34147;DHT22;20423;49.448;9.056;2022-12-07T17:22:45;1.30;99.90
34147;DHT22;20423;49.448;9.056;2022-12-07T17:25:11;1.30;99.90
34147;DHT22;20423;49.448;9.056;2022-12-07T17:27:37;1.30;99.90
34147;DHT22;20423;49.448;9.056;2022-12-07T17:30:04;1.20;99.90
34147;DHT22;20423;49.448;9.056;2022-12-07T17:32:30;1.20;99.90
34147;DHT22;20423;49.448;9.056;2022-12-07T17:34:56;1.20;99.90
34147;DHT22;20423;49.448;9.056;2022-12-07T17:37:21;1.20;99.90
34147;DHT22;20423;49.448;9.056;2022-12-07T17:43:29;1.20;99.90
34147;DHT22;20423;49.448;9.056;2022-12-07T17:45:54;1.20;99.90
34147;DHT22;20423;49.448;9.056;2022-12-07T17:48:20;1.20;99.90
34147;DHT22;20423;49.448;9.056;2022-12-07T17:50:46;1.10;99.90
34147;DHT22;20423;49.448;9.056;2022-12-07T17:53:30;1.10;99.90
34147;DHT22;20423;49.448;9.056;2022-12-07T17:55:56;1.20;99.90
34147;DHT22;20423;49.448;9.056;2022-12-07T17:58:21;1.10;99.90
34147;DHT22;20423;49.448;9.056;2022-12-07T18:01:18;1.10;99.90
34147;DHT22;20423;49.448;9.056;2022-12-07T18:03:44;1.20;99.90
34147;DHT22;20423;49.448;9.056;2022-12-07T18:06:09;1.20;99.90